createdAt,value
2022-08-16T00:00:57.620Z,13.95
2022-08-16T00:03:25.416Z,13.73
2022-08-16T00:05:57.478Z,13.32
2022-08-16T00:08:36.721Z,13.73
2022-08-16T00:11:06.713Z,13.45
2022-08-16T00:13:41.621Z,13.68
2022-08-16T00:17:00.590Z,12.55
2022-08-16T00:18:57.080Z,13.00
2022-08-16T00:21:26.115Z,13.38
2022-08-16T00:23:56.350Z,13.27
2022-08-16T00:26:35.652Z,12.50
2022-08-16T00:29:05.852Z,13.27
2022-08-16T00:31:59.111Z,12.65
2022-08-16T00:34:22.557Z,13.55
2022-08-16T00:37:10.102Z,14.13
2022-08-16T00:39:37.113Z,12.35
2022-08-16T00:42:10.250Z,13.77
2022-08-16T00:44:38.764Z,13.98
2022-08-16T00:47:10.514Z,13.73
2022-08-16T00:49:39.405Z,13.57
2022-08-16T00:52:29.610Z,13.20
2022-08-16T00:54:58.834Z,13.65
2022-08-16T00:57:27.581Z,13.45
2022-08-16T01:00:19.962Z,14.68
2022-08-16T01:02:51.176Z,13.00
2022-08-16T01:05:19.570Z,14.43
2022-08-16T01:07:53.449Z,13.63
2022-08-16T01:10:32.828Z,13.55
2022-08-16T01:13:27.621Z,13.13
2022-08-16T01:16:20.007Z,14.18
2022-08-16T01:19:02.716Z,13.07
2022-08-16T01:21:39.924Z,13.35
2022-08-16T01:24:53.948Z,14.48
2022-08-16T01:27:29.843Z,14.68
2022-08-16T01:30:20.669Z,15.13
2022-08-16T01:33:14.660Z,14.57
2022-08-16T01:35:43.058Z,13.77
2022-08-16T01:38:28.543Z,14.75
2022-08-16T01:41:09.600Z,14.02
2022-08-16T01:43:39.986Z,14.30
2022-08-16T01:46:29.719Z,13.77
2022-08-16T01:49:10.120Z,15.13
2022-08-16T01:54:07.779Z,14.55
2022-08-16T01:56:36.457Z,15.00
2022-08-16T01:59:07.681Z,14.52
2022-08-16T02:01:43.972Z,13.95
2022-08-16T02:04:48.327Z,13.88
2022-08-16T02:07:10.586Z,14.40
2022-08-16T02:09:40.023Z,14.70
2022-08-16T02:12:43.600Z,13.85
2022-08-16T02:14:55.894Z,14.35
2022-08-16T02:17:24.526Z,14.80
2022-08-16T02:19:58.790Z,23.13
2022-08-16T02:22:34.687Z,15.27
2022-08-16T02:25:08.320Z,15.50
2022-08-16T02:27:38.856Z,14.98
2022-08-16T02:30:37.032Z,14.73
2022-08-16T02:35:31.113Z,14.13
2022-08-16T02:38:01.641Z,14.68
2022-08-16T02:40:36.290Z,14.77
2022-08-16T02:43:04.682Z,15.98
2022-08-16T02:45:32.499Z,14.93
2022-08-16T02:48:28.884Z,14.38
2022-08-16T02:51:03.206Z,15.02
2022-08-16T02:53:35.588Z,14.98
2022-08-16T02:56:02.662Z,15.13
2022-08-16T02:58:31.598Z,15.25
2022-08-16T03:00:59.520Z,15.10
2022-08-16T03:04:40.805Z,15.50
2022-08-16T03:06:42.512Z,14.52
2022-08-16T03:09:07.487Z,15.68
2022-08-16T03:11:40.359Z,15.40
2022-08-16T03:14:07.437Z,15.55
2022-08-16T03:16:40.429Z,15.60
2022-08-16T03:19:09.515Z,15.85
2022-08-16T03:21:38.620Z,15.27
2022-08-16T03:24:29.235Z,15.00
2022-08-16T03:26:57.812Z,15.20
2022-08-16T03:29:27.434Z,16.40
2022-08-16T03:31:59.266Z,15.90
2022-08-16T03:34:27.657Z,16.30
2022-08-16T03:36:55.096Z,16.80
2022-08-16T03:39:22.774Z,15.70
2022-08-16T03:41:59.120Z,15.90
2022-08-16T03:44:43.985Z,15.60
2022-08-16T03:47:18.556Z,15.73
2022-08-16T03:49:51.294Z,15.65
2022-08-16T03:52:20.700Z,16.27
2022-08-16T03:54:57.481Z,15.32
2022-08-16T03:57:32.045Z,15.65
2022-08-16T04:00:35.017Z,15.95
2022-08-16T04:03:08.654Z,16.30
2022-08-16T04:05:38.224Z,15.07
2022-08-16T04:08:23.758Z,17.00
2022-08-16T04:10:55.930Z,16.55
2022-08-16T04:14:01.563Z,15.48
2022-08-16T04:16:27.426Z,15.98
2022-08-16T04:19:02.776Z,16.50
2022-08-16T04:21:36.037Z,16.02
2022-08-16T04:24:13.136Z,15.73
2022-08-16T04:26:45.802Z,16.83
2022-08-16T04:29:16.811Z,15.43
2022-08-16T04:31:56.220Z,16.70
2022-08-16T04:34:26.708Z,15.63
2022-08-16T04:36:54.356Z,16.52
2022-08-16T04:39:23.811Z,16.13
2022-08-16T04:41:56.909Z,15.13
2022-08-16T04:44:32.699Z,15.20
2022-08-16T04:47:21.390Z,15.00
2022-08-16T04:49:50.893Z,15.55
2022-08-16T04:52:34.504Z,15.30
2022-08-16T04:55:12.192Z,16.70
2022-08-16T04:57:41.446Z,15.13
2022-08-16T05:00:30.416Z,15.68
2022-08-16T05:03:01.469Z,14.93
2022-08-16T05:05:43.857Z,14.98
2022-08-16T05:08:29.095Z,15.52
2022-08-16T05:11:00.335Z,14.40
2022-08-16T05:13:40.590Z,15.30
2022-08-16T05:16:20.175Z,14.45
2022-08-16T05:18:50.876Z,14.40
2022-08-16T05:21:20.606Z,15.75
2022-08-16T05:23:55.584Z,16.65
2022-08-16T05:26:24.848Z,14.57
2022-08-16T05:28:55.977Z,15.88
2022-08-16T05:31:29.649Z,15.38
2022-08-16T05:34:03.758Z,15.55
2022-08-16T05:36:36.499Z,15.60
2022-08-16T05:39:09.464Z,15.25
2022-08-16T05:41:45.682Z,15.27
2022-08-16T05:44:23.804Z,15.82
2022-08-16T05:47:00.149Z,15.70
2022-08-16T05:49:36.829Z,15.98
2022-08-16T05:52:11.157Z,15.00
2022-08-16T05:54:46.781Z,15.75
2022-08-16T05:57:16.559Z,15.23
2022-08-16T05:59:44.125Z,15.05
2022-08-16T06:02:11.006Z,14.90
2022-08-16T06:04:38.139Z,14.63
2022-08-16T06:07:26.126Z,15.70
2022-08-16T06:09:56.269Z,15.93
2022-08-16T06:12:27.022Z,15.35
2022-08-16T06:14:59.937Z,15.75
2022-08-16T06:17:41.483Z,15.40
2022-08-16T06:20:23.093Z,16.15
2022-08-16T06:23:03.003Z,15.80
2022-08-16T06:25:35.830Z,16.30
2022-08-16T06:28:08.357Z,16.20
2022-08-16T06:30:43.838Z,20.67
2022-08-16T06:33:19.907Z,20.23
2022-08-16T06:35:55.216Z,17.73
2022-08-16T06:38:32.825Z,15.13
2022-08-16T06:41:05.410Z,15.90
2022-08-16T06:43:33.346Z,15.82
2022-08-16T06:46:03.886Z,20.20
2022-08-16T06:48:33.680Z,19.80
2022-08-16T06:51:05.928Z,15.27
2022-08-16T06:53:36.280Z,15.57
2022-08-16T06:56:14.382Z,15.68
2022-08-16T06:58:45.788Z,16.05
2022-08-16T07:01:15.851Z,14.65
2022-08-16T07:03:55.290Z,13.98
2022-08-16T07:06:26.599Z,15.02
2022-08-16T07:08:54.743Z,16.50
2022-08-16T07:11:46.111Z,13.60
2022-08-16T07:14:25.147Z,20.02
2022-08-16T07:16:58.212Z,17.55
2022-08-16T07:20:04.035Z,13.50
2022-08-16T07:22:37.873Z,13.45
2022-08-16T07:25:02.185Z,13.23
2022-08-16T07:27:29.120Z,14.88
2022-08-16T07:30:00.631Z,15.88
2022-08-16T07:32:29.729Z,16.38
2022-08-16T07:34:58.948Z,13.15
2022-08-16T07:37:25.907Z,13.88
2022-08-16T07:39:54.602Z,16.40
2022-08-16T07:42:34.709Z,21.23
2022-08-16T07:45:03.486Z,28.10
2022-08-16T07:47:37.026Z,15.93
2022-08-16T07:50:07.489Z,17.73
2022-08-16T07:52:39.031Z,15.77
2022-08-16T07:55:08.170Z,14.68
2022-08-16T07:57:44.323Z,21.67
2022-08-16T08:00:25.233Z,18.27
2022-08-16T08:02:55.606Z,17.48
2022-08-16T08:05:25.571Z,15.45
2022-08-16T08:08:03.199Z,16.42
2022-08-16T08:10:39.293Z,16.10
2022-08-16T08:13:06.229Z,17.08
2022-08-16T08:15:34.752Z,14.38
2022-08-16T08:18:30.257Z,15.30
2022-08-16T08:20:59.162Z,16.50
2022-08-16T08:23:27.776Z,15.40
2022-08-16T08:25:55.986Z,17.10
2022-08-16T08:28:23.767Z,15.02
2022-08-16T08:31:01.567Z,16.55
2022-08-16T08:33:31.750Z,16.63
2022-08-16T08:36:02.502Z,15.23
2022-08-16T08:38:45.100Z,15.82
2022-08-16T08:41:18.979Z,17.77
2022-08-16T08:43:50.406Z,16.13
2022-08-16T08:46:21.369Z,18.80
2022-08-16T08:48:59.937Z,24.02
2022-08-16T08:51:31.958Z,19.90
2022-08-16T08:54:07.071Z,15.30
2022-08-16T08:56:37.597Z,17.90
2022-08-16T08:59:13.301Z,15.68
2022-08-16T09:01:56.581Z,17.93
2022-08-16T09:04:25.333Z,16.08
2022-08-16T09:06:54.034Z,14.77
2022-08-16T09:09:22.277Z,15.20
2022-08-16T09:11:53.611Z,19.15
2022-08-16T09:14:31.817Z,18.40
2022-08-16T09:17:03.722Z,16.55
2022-08-16T09:19:40.597Z,16.30
2022-08-16T09:22:21.008Z,14.50
2022-08-16T09:24:53.145Z,13.48
2022-08-16T09:27:25.179Z,12.35
2022-08-16T09:30:00.083Z,13.77
2022-08-16T09:32:30.960Z,14.65
2022-08-16T09:35:00.239Z,14.95
2022-08-16T09:37:36.280Z,14.65
2022-08-16T09:40:33.109Z,14.70
2022-08-16T09:42:56.371Z,14.75
2022-08-16T09:45:29.089Z,15.07
2022-08-16T09:47:58.392Z,14.20
2022-08-16T09:50:36.812Z,14.60
2022-08-16T09:53:15.557Z,15.02
2022-08-16T09:55:49.414Z,12.68
2022-08-16T09:58:40.721Z,13.23
2022-08-16T10:01:08.731Z,12.48
2022-08-16T10:04:01.839Z,12.30
2022-08-16T10:06:33.789Z,12.85
2022-08-16T10:09:05.298Z,12.05
2022-08-16T10:11:52.184Z,12.97
2022-08-16T10:14:19.843Z,12.30
2022-08-16T10:16:59.618Z,11.13
2022-08-16T10:19:29.798Z,12.27
2022-08-16T10:21:59.618Z,12.05
2022-08-16T10:24:32.782Z,10.88
2022-08-16T10:27:25.966Z,11.05
2022-08-16T10:30:00.228Z,10.68
2022-08-16T10:32:30.580Z,10.70
2022-08-16T10:34:58.219Z,10.38
2022-08-16T10:37:32.614Z,10.77
2022-08-16T10:40:28.664Z,10.20
2022-08-16T10:43:00.113Z,10.40
2022-08-16T10:45:37.047Z,11.88
2022-08-16T10:48:27.290Z,8.73
2022-08-16T10:50:58.097Z,9.40
2022-08-16T10:53:32.835Z,8.65
2022-08-16T10:56:52.957Z,8.18
2022-08-16T10:59:29.581Z,8.38
2022-08-16T11:02:21.884Z,8.32
2022-08-16T11:12:54.728Z,9.73
2022-08-16T11:15:22.512Z,9.50
2022-08-16T11:18:48.684Z,9.57
2022-08-16T11:20:49.386Z,10.15
2022-08-16T11:23:17.853Z,9.68
2022-08-16T11:26:10.402Z,9.63
2022-08-16T11:29:12.562Z,10.00
2022-08-16T11:31:22.850Z,12.82
2022-08-16T11:33:53.477Z,11.63
2022-08-16T11:36:22.533Z,10.35
2022-08-16T11:38:57.712Z,9.65
2022-08-16T11:41:26.606Z,10.15
2022-08-16T11:43:58.185Z,12.80
2022-08-16T11:46:45.448Z,10.13
2022-08-16T11:49:13.863Z,9.75
2022-08-16T11:51:44.461Z,9.40
2022-08-16T11:54:20.950Z,9.80
2022-08-16T11:56:52.610Z,9.43
2022-08-16T11:59:28.560Z,12.07
2022-08-16T12:02:04.144Z,9.50
2022-08-16T12:04:46.280Z,8.68
2022-08-16T12:07:19.113Z,9.35
2022-08-16T12:09:46.168Z,9.52
2022-08-16T12:12:15.775Z,11.88
2022-08-16T12:14:46.049Z,9.02
2022-08-16T12:17:14.321Z,8.68
2022-08-16T12:19:41.544Z,9.13
2022-08-16T12:22:18.683Z,9.25
2022-08-16T12:24:51.014Z,8.45
2022-08-16T12:27:24.486Z,9.02
2022-08-16T12:29:58.516Z,8.55
2022-08-16T12:32:36.116Z,8.18
2022-08-16T12:35:13.298Z,7.55
2022-08-16T12:37:41.529Z,7.80
2022-08-16T12:40:24.297Z,7.75
2022-08-16T12:42:55.195Z,6.38
2022-08-16T12:45:26.953Z,7.15
2022-08-16T12:48:32.663Z,7.30
2022-08-16T12:51:01.043Z,11.00
2022-08-16T12:53:31.674Z,7.82
2022-08-16T12:56:00.049Z,7.13
2022-08-16T12:58:49.420Z,7.63
2022-08-16T13:01:14.768Z,8.30
2022-08-16T13:03:44.219Z,8.25
2022-08-16T13:06:12.515Z,8.18
2022-08-16T13:08:39.955Z,9.38
2022-08-16T13:11:07.798Z,9.15
2022-08-16T13:13:35.513Z,8.73
2022-08-16T13:16:15.162Z,8.90
2022-08-16T13:18:52.745Z,9.20
2022-08-16T13:21:23.629Z,8.25
2022-08-16T13:23:55.331Z,9.15
2022-08-16T13:26:24.159Z,9.05
2022-08-16T13:28:53.402Z,9.20
2022-08-16T13:31:20.747Z,8.82
2022-08-16T13:33:47.867Z,9.90
2022-08-16T13:36:38.820Z,9.00
2022-08-16T13:39:03.804Z,9.43
2022-08-16T13:41:32.304Z,9.45
2022-08-16T13:44:00.908Z,9.13
2022-08-16T13:46:34.278Z,11.70
2022-08-16T13:49:01.679Z,7.90
2022-08-16T13:51:30.806Z,8.60
2022-08-16T13:54:03.890Z,8.63
2022-08-16T13:56:37.629Z,8.73
2022-08-16T13:59:19.211Z,8.43
2022-08-16T14:01:54.968Z,8.18
2022-08-16T14:04:26.624Z,8.02
2022-08-16T14:06:55.387Z,7.50
2022-08-16T14:09:23.958Z,8.27
2022-08-16T14:11:53.372Z,7.65
2022-08-16T14:14:28.609Z,7.65
2022-08-16T14:16:58.200Z,9.82
2022-08-16T14:19:26.522Z,8.75
2022-08-16T14:22:03.915Z,9.88
2022-08-16T14:24:41.982Z,9.13
2022-08-16T14:27:14.017Z,9.53
2022-08-16T14:29:42.470Z,10.10
2022-08-16T14:32:09.542Z,8.10
2022-08-16T14:34:55.757Z,8.43
2022-08-16T14:37:23.023Z,8.80
2022-08-16T14:39:50.723Z,11.13
2022-08-16T14:42:21.850Z,9.45
2022-08-16T14:44:49.630Z,8.65
2022-08-16T14:47:17.603Z,9.07
2022-08-16T14:49:45.530Z,8.77
2022-08-16T14:52:32.559Z,8.05
2022-08-16T14:55:05.411Z,9.93
2022-08-16T14:57:32.349Z,8.15
2022-08-16T15:00:05.487Z,8.05
2022-08-16T15:02:44.429Z,8.68
2022-08-16T15:05:13.012Z,8.35
2022-08-16T15:07:41.455Z,7.97
2022-08-16T15:10:12.125Z,8.30
2022-08-16T15:12:56.294Z,8.68
2022-08-16T15:15:28.376Z,8.40
2022-08-16T15:17:57.257Z,7.28
2022-08-16T15:20:29.972Z,7.32
2022-08-16T15:22:59.808Z,9.55
2022-08-16T15:25:29.657Z,9.30
2022-08-16T15:27:58.707Z,8.00
2022-08-16T15:30:56.951Z,8.38
2022-08-16T15:33:18.413Z,8.35
2022-08-16T15:35:48.044Z,8.30
2022-08-16T15:38:55.179Z,8.82
2022-08-16T15:41:03.429Z,8.40
2022-08-16T15:43:38.890Z,7.40
2022-08-16T15:46:35.346Z,7.85
2022-08-16T15:49:14.652Z,8.18
2022-08-16T15:51:43.431Z,8.70
2022-08-16T15:54:29.412Z,8.90
2022-08-16T15:57:04.238Z,10.05
2022-08-16T15:59:49.109Z,8.93
2022-08-16T16:02:27.465Z,8.52
2022-08-16T16:04:56.726Z,8.55
2022-08-16T16:07:24.183Z,8.95
2022-08-16T16:09:53.115Z,9.48
2022-08-16T16:12:51.285Z,9.43
2022-08-16T16:15:07.631Z,8.82
2022-08-16T16:17:35.618Z,8.55
2022-08-16T16:20:04.707Z,10.77
2022-08-16T16:22:31.843Z,9.48
2022-08-16T16:24:58.958Z,10.55
2022-08-16T16:27:25.861Z,11.10
2022-08-16T16:30:01.622Z,9.55
2022-08-16T16:32:34.069Z,9.48
2022-08-16T16:35:02.506Z,9.48
2022-08-16T16:37:31.180Z,10.48
2022-08-16T16:39:58.843Z,9.75
2022-08-16T16:42:29.910Z,10.57
2022-08-16T16:45:01.646Z,10.05
2022-08-16T16:47:38.029Z,17.50
2022-08-16T16:50:10.256Z,10.45
2022-08-16T16:52:43.861Z,18.08
2022-08-16T16:55:13.010Z,22.13
2022-08-16T16:58:00.858Z,10.10
2022-08-16T17:00:38.312Z,14.88
2022-08-16T17:03:15.339Z,21.05
2022-08-16T17:05:57.148Z,20.92
2022-08-16T17:08:26.222Z,12.07
2022-08-16T17:10:54.144Z,15.15
2022-08-16T17:13:25.615Z,11.50
2022-08-16T17:15:54.472Z,10.75
2022-08-16T17:19:16.094Z,10.52
2022-08-16T17:21:10.239Z,11.05
2022-08-16T17:23:59.347Z,10.43
2022-08-16T17:26:30.065Z,10.77
2022-08-16T17:29:02.474Z,10.00
2022-08-16T17:34:30.871Z,10.52
2022-08-16T17:37:05.452Z,11.00
2022-08-16T17:39:27.057Z,10.50
2022-08-16T17:39:45.402Z,31.10
2022-08-16T17:42:25.305Z,16.48
2022-08-16T17:44:52.654Z,13.10
2022-08-16T17:47:21.861Z,15.07
2022-08-16T17:49:49.253Z,16.70
2022-08-16T17:52:17.383Z,14.43
2022-08-16T17:54:45.046Z,15.75
2022-08-16T17:57:12.996Z,15.30
2022-08-16T17:59:42.136Z,12.93
2022-08-16T18:02:42.154Z,13.70
2022-08-16T18:04:57.385Z,17.08
2022-08-16T18:07:24.252Z,14.73
2022-08-16T18:09:52.436Z,16.40
2022-08-16T18:12:51.158Z,14.27
2022-08-16T18:15:14.539Z,13.02
2022-08-16T18:17:42.081Z,13.98
2022-08-16T18:20:30.044Z,16.90
2022-08-16T18:23:10.699Z,18.15
2022-08-16T18:25:44.608Z,15.95
2022-08-16T18:28:12.224Z,13.98
2022-08-16T18:30:39.915Z,13.70
2022-08-16T18:33:07.319Z,13.73
2022-08-16T18:35:35.278Z,18.15
2022-08-16T18:38:02.614Z,16.80
2022-08-16T18:40:30.112Z,14.32
2022-08-16T18:43:06.033Z,13.65
2022-08-16T18:45:36.679Z,14.90
2022-08-16T18:48:05.363Z,14.23
2022-08-16T18:51:03.167Z,15.10
2022-08-16T18:53:21.087Z,16.30
2022-08-16T18:55:49.163Z,14.30
2022-08-16T18:58:17.259Z,15.32
2022-08-16T19:00:55.954Z,14.95
2022-08-16T19:03:30.321Z,13.85
2022-08-16T19:06:06.998Z,13.07
2022-08-16T19:08:38.824Z,29.83
2022-08-16T19:11:08.200Z,14.90
2022-08-16T19:13:35.958Z,19.88
2022-08-16T19:16:04.282Z,19.85
2022-08-16T19:18:36.791Z,15.20
2022-08-16T19:21:05.046Z,12.60
2022-08-16T19:23:35.953Z,12.50
2022-08-16T19:26:24.708Z,12.27
2022-08-16T19:28:58.815Z,12.52
2022-08-16T19:31:33.099Z,11.88
2022-08-16T19:34:01.444Z,18.45
2022-08-16T19:36:35.140Z,13.93
2022-08-16T19:39:08.612Z,14.45
2022-08-16T19:44:06.063Z,13.95
2022-08-16T19:46:33.516Z,11.38
2022-08-16T19:49:00.557Z,12.50
2022-08-16T19:51:27.648Z,11.57
2022-08-16T19:53:54.620Z,12.80
2022-08-16T19:56:25.825Z,14.57
2022-08-16T20:01:42.482Z,12.13
2022-08-16T20:04:13.663Z,11.25
2022-08-16T20:06:42.507Z,10.55
2022-08-16T20:09:12.643Z,11.98
2022-08-16T20:11:44.410Z,12.23
2022-08-16T20:14:11.586Z,11.23
2022-08-16T20:16:46.861Z,12.77
2022-08-16T20:19:13.863Z,11.30
2022-08-16T20:21:40.862Z,11.45
2022-08-16T20:24:32.797Z,11.93
2022-08-16T20:26:54.987Z,12.40
2022-08-16T20:29:21.968Z,30.40
2022-08-16T20:31:49.187Z,16.30
2022-08-16T20:34:16.453Z,15.20
2022-08-16T20:36:44.000Z,17.67
2022-08-16T20:39:13.619Z,14.15
2022-08-16T20:41:42.848Z,13.13
2022-08-16T20:44:11.574Z,11.63
2022-08-16T20:46:39.788Z,16.58
2022-08-16T20:49:09.211Z,18.83
2022-08-16T20:51:49.465Z,20.23
2022-08-16T20:54:19.391Z,17.50
2022-08-16T20:56:48.814Z,12.93
2022-08-16T20:59:16.046Z,12.88
2022-08-16T21:01:46.412Z,13.40
2022-08-16T21:04:21.317Z,12.00
2022-08-16T21:06:54.385Z,12.15
2022-08-16T21:09:32.713Z,11.10
2022-08-16T21:12:05.582Z,10.77
2022-08-16T21:14:34.274Z,11.88
2022-08-16T21:17:03.373Z,11.05
2022-08-16T21:19:32.280Z,11.25
2022-08-16T21:22:17.365Z,11.63
2022-08-16T21:24:46.349Z,10.85
2022-08-16T21:27:15.272Z,10.45
2022-08-16T21:29:46.113Z,10.75
2022-08-16T21:32:19.920Z,11.00
2022-08-16T21:35:11.780Z,10.68
2022-08-16T21:37:39.466Z,10.73
2022-08-16T21:40:08.952Z,10.50
2022-08-16T21:42:37.706Z,11.43
2022-08-16T21:45:05.531Z,11.23
2022-08-16T21:47:32.516Z,11.70
2022-08-16T21:49:59.413Z,11.55
2022-08-16T21:52:27.655Z,11.30
2022-08-16T21:54:56.601Z,11.32
2022-08-16T21:57:23.995Z,11.60
2022-08-16T21:59:52.053Z,11.20
2022-08-16T22:02:21.353Z,12.00
2022-08-16T22:04:49.190Z,11.57
2022-08-16T22:07:18.118Z,14.02
2022-08-16T22:09:46.864Z,11.02
2022-08-16T22:12:26.592Z,10.55
2022-08-16T22:14:53.847Z,10.93
2022-08-16T22:17:20.788Z,10.73
2022-08-16T22:19:47.913Z,10.57
2022-08-16T22:22:14.932Z,11.45
2022-08-16T22:24:41.881Z,10.63
2022-08-16T22:27:08.984Z,11.48
2022-08-16T22:29:35.885Z,11.73
2022-08-16T22:32:07.050Z,10.68
2022-08-16T22:34:34.371Z,11.15
2022-08-16T22:37:01.429Z,10.38
2022-08-16T22:39:28.371Z,10.77
2022-08-16T22:41:55.410Z,11.15
2022-08-16T22:44:22.422Z,11.55
2022-08-16T22:46:49.471Z,11.43
2022-08-16T22:49:16.543Z,11.60
2022-08-16T22:51:43.605Z,11.93
2022-08-16T22:54:48.190Z,11.52
2022-08-16T22:56:58.316Z,11.40
2022-08-16T22:59:25.323Z,10.82
2022-08-16T23:01:52.760Z,10.75
2022-08-16T23:04:19.781Z,11.95
2022-08-16T23:06:46.728Z,10.75
2022-08-16T23:09:13.655Z,11.20
2022-08-16T23:11:40.686Z,11.90
2022-08-16T23:14:07.546Z,11.48
2022-08-16T23:16:35.106Z,12.75
2022-08-16T23:19:08.859Z,10.93
2022-08-16T23:21:37.584Z,11.93
2022-08-16T23:24:05.140Z,10.82
2022-08-16T23:26:45.141Z,11.52
2022-08-16T23:31:56.506Z,11.77
2022-08-16T23:34:25.071Z,11.43
2022-08-16T23:36:52.177Z,11.80
2022-08-16T23:39:19.107Z,11.68
2022-08-16T23:41:45.985Z,11.68
2022-08-16T23:44:57.469Z,12.55
2022-08-16T23:46:59.784Z,11.65
2022-08-16T23:49:58.106Z,11.27
2022-08-16T23:52:13.701Z,12.38
2022-08-16T23:54:40.590Z,11.68
2022-08-16T23:57:08.473Z,12.38
2022-08-16T23:59:48.567Z,13.13
